Time;durP1;ratioP1;P1;durP2;ratioP2;P2;SDS_P1;SDS_P2;PMS_P1;PMS_P2;Temp;Humidity;BMP_temperature;BMP_pressure;BME280_temperature;BME280_humidity;BME280_pressure;Samples;Min_cycle;Max_cycle;Signal;HPM_P1;HPM_P2
2021/03/17 00:01:23;;;;;;;27.15;9.82;;;0.70;99.90;;;;;;4958690;27;20551;-81
2021/03/17 00:03:46;;;;;;;22.38;9.10;;;0.70;99.90;;;;;;4956417;27;20142;-81
2021/03/17 00:06:10;;;;;;;16.50;7.90;;;0.70;99.90;;;;;;4954801;27;20117;-81
2021/03/17 00:08:32;;;;;;;23.95;8.40;;;0.70;99.90;;;;;;4954913;27;20134;-81
2021/03/17 00:10:56;;;;;;;19.75;9.05;;;0.70;99.90;;;;;;4955106;27;20091;-81
2021/03/17 00:13:20;;;;;;;18.80;7.95;;;0.90;99.90;;;;;;4951336;27;20090;-81
2021/03/17 00:15:44;;;;;;;21.75;9.27;;;0.70;99.90;;;;;;4952447;27;20135;-80
2021/03/17 00:18:09;;;;;;;23.90;9.43;;;0.80;99.90;;;;;;4949081;27;20101;-81
2021/03/17 00:20:33;;;;;;;19.67;7.78;;;0.80;99.90;;;;;;4955241;27;20109;-81
2021/03/17 00:22:57;;;;;;;25.83;10.13;;;0.90;99.90;;;;;;4957116;27;20089;-81
2021/03/17 00:25:21;;;;;;;24.13;9.85;;;1.00;99.90;;;;;;4956801;27;20143;-81
2021/03/17 00:27:43;;;;;;;24.67;9.02;;;1.00;99.90;;;;;;4953627;27;20101;-81
2021/03/17 00:30:07;;;;;;;24.85;11.00;;;1.10;99.90;;;;;;4954286;27;20085;-81
2021/03/17 00:32:30;;;;;;;30.70;10.88;;;1.20;99.90;;;;;;4958636;27;20433;-80
2021/03/17 00:34:53;;;;;;;23.60;9.95;;;1.20;99.90;;;;;;4949006;27;20093;-81
2021/03/17 00:37:16;;;;;;;28.92;10.73;;;1.30;99.90;;;;;;4955692;27;20113;-80
2021/03/17 00:39:39;;;;;;;30.08;11.20;;;1.30;99.90;;;;;;4957799;27;20087;-81
2021/03/17 00:42:02;;;;;;;27.00;11.20;;;1.30;99.90;;;;;;4953570;27;20082;-81
2021/03/17 00:44:25;;;;;;;27.95;11.80;;;1.30;99.90;;;;;;4956190;27;20078;-82
2021/03/17 00:46:47;;;;;;;35.25;12.45;;;1.40;99.90;;;;;;4962426;27;20092;-81
2021/03/17 00:49:10;;;;;;;26.83;11.57;;;1.40;99.90;;;;;;4959282;27;20093;-82
2021/03/17 00:51:33;;;;;;;29.40;11.68;;;1.40;99.90;;;;;;4952971;27;20085;-82
2021/03/17 00:53:55;;;;;;;28.20;11.43;;;1.50;99.90;;;;;;4949902;27;20524;-81
2021/03/17 00:56:20;;;;;;;27.08;11.63;;;1.40;99.90;;;;;;4957434;27;20096;-80
2021/03/17 00:58:43;;;;;;;36.95;13.15;;;1.50;99.90;;;;;;4955419;27;20089;-80
2021/03/17 01:01:05;;;;;;;30.35;12.52;;;1.50;99.90;;;;;;4955140;27;20105;-82
2021/03/17 01:03:28;;;;;;;32.55;12.60;;;1.50;99.90;;;;;;4952377;27;20118;-81
2021/03/17 01:05:50;;;;;;;27.58;11.02;;;1.60;99.90;;;;;;4950792;27;20426;-81
2021/03/17 01:08:14;;;;;;;31.55;11.70;;;1.60;99.90;;;;;;4958806;27;20078;-81
2021/03/17 01:10:40;;;;;;;34.75;11.85;;;1.50;99.90;;;;;;4952163;27;20089;-81
2021/03/17 01:13:04;;;;;;;31.90;12.75;;;1.50;99.90;;;;;;4958376;27;20093;-81
2021/03/17 01:15:27;;;;;;;32.17;13.30;;;1.40;99.90;;;;;;4955842;27;20089;-82
2021/03/17 01:17:50;;;;;;;31.67;12.35;;;;;;;;;;4936356;27;20100;-82
2021/03/17 01:20:14;;;;;;;30.95;12.15;;;1.40;99.90;;;;;;4960144;27;20089;-81
2021/03/17 01:22:37;;;;;;;29.83;12.30;;;1.40;99.90;;;;;;4956889;27;20548;-82
2021/03/17 01:25:00;;;;;;;25.58;11.85;;;1.40;99.90;;;;;;4932592;27;20586;-82
2021/03/17 01:27:22;;;;;;;30.67;12.00;;;1.30;99.90;;;;;;4959778;27;20109;-81
2021/03/17 01:29:46;;;;;;;31.63;11.45;;;1.20;99.90;;;;;;4955751;27;20089;-81
2021/03/17 01:32:08;;;;;;;27.83;11.88;;;1.20;99.90;;;;;;4942669;27;20082;-82
2021/03/17 01:34:31;;;;;;;31.33;11.80;;;1.20;99.90;;;;;;4954853;27;20082;-82
2021/03/17 01:36:53;;;;;;;29.38;11.20;;;1.10;99.90;;;;;;4956280;27;20090;-81
2021/03/17 01:39:16;;;;;;;26.83;11.63;;;1.20;99.90;;;;;;4955702;27;20104;-80
2021/03/17 01:41:38;;;;;;;31.77;12.15;;;1.20;99.90;;;;;;4952050;27;20094;-81
2021/03/17 01:44:01;;;;;;;25.58;10.98;;;1.30;99.90;;;;;;4955423;27;20093;-80
2021/03/17 01:46:24;;;;;;;31.98;12.40;;;1.30;99.90;;;;;;4959034;27;20093;-82
2021/03/17 01:48:48;;;;;;;24.17;10.75;;;1.30;99.90;;;;;;4946546;27;20093;-81
2021/03/17 01:51:10;;;;;;;26.20;11.90;;;1.30;99.90;;;;;;4947664;27;20451;-81
2021/03/17 01:53:36;;;;;;;27.05;11.77;;;1.40;99.90;;;;;;4955360;27;20090;-80
2021/03/17 01:55:59;;;;;;;28.60;12.25;;;1.30;99.90;;;;;;4950768;27;20151;-81
2021/03/17 01:58:22;;;;;;;32.40;11.50;;;1.40;99.90;;;;;;4952883;27;20085;-82
2021/03/17 02:00:45;;;;;;;29.55;10.77;;;1.40;99.90;;;;;;4954518;27;20109;-81
2021/03/17 02:03:09;;;;;;;25.00;10.55;;;1.30;99.90;;;;;;4954782;27;20124;-81
2021/03/17 02:05:33;;;;;;;25.20;10.98;;;1.30;99.90;;;;;;4959876;27;20085;-81
2021/03/17 02:07:58;;;;;;;26.95;10.68;;;1.30;99.90;;;;;;4954026;27;20109;-81
2021/03/17 02:10:22;;;;;;;28.17;11.13;;;1.30;99.90;;;;;;4954521;27;20081;-80
2021/03/17 02:12:57;;;;;;;26.48;10.40;;;1.30;99.90;;;;;;4953773;27;20082;-82
2021/03/17 02:15:39;;;;;;;26.50;11.10;;;1.40;99.90;;;;;;4956455;27;20090;-82
2021/03/17 02:18:08;;;;;;;25.25;11.10;;;1.40;99.90;;;;;;4952329;27;20085;-81
2021/03/17 02:20:49;;;;;;;26.23;10.63;;;1.40;99.90;;;;;;4952881;27;20519;-82
2021/03/17 02:23:23;;;;;;;26.65;10.82;;;1.40;99.90;;;;;;4950676;27;20074;-81
2021/03/17 02:26:17;;;;;;;26.05;10.30;;;1.30;99.90;;;;;;4948163;27;20089;-81
2021/03/17 02:28:58;;;;;;;24.48;11.35;;;1.30;99.90;;;;;;4946084;27;20088;-81
2021/03/17 02:31:35;;;;;;;25.88;10.25;;;1.30;99.90;;;;;;4954653;27;20421;-82
2021/03/17 02:34:05;;;;;;;28.38;11.35;;;1.20;99.90;;;;;;4953075;27;20181;-82
2021/03/17 02:36:34;;;;;;;25.75;11.25;;;1.30;99.90;;;;;;4951526;27;20113;-81
2021/03/17 02:39:06;;;;;;;27.05;11.07;;;1.30;99.90;;;;;;4950688;27;20509;-81
2021/03/17 02:41:34;;;;;;;24.08;10.95;;;1.30;99.90;;;;;;4949080;27;20093;-82
2021/03/17 02:44:01;;;;;;;25.17;10.80;;;1.30;99.90;;;;;;4952226;27;20089;-81
2021/03/17 02:46:26;;;;;;;24.42;10.45;;;1.20;99.90;;;;;;4957364;27;20089;-81
2021/03/17 02:49:04;;;;;;;30.15;11.20;;;1.20;99.90;;;;;;4951838;27;20089;-82
2021/03/17 02:51:39;;;;;;;27.23;11.75;;;1.30;99.90;;;;;;4941685;27;20101;-82
2021/03/17 02:54:04;;;;;;;27.33;9.10;;;1.40;99.90;;;;;;4959496;27;20104;-82
2021/03/17 02:56:28;;;;;;;32.10;12.40;;;1.40;99.90;;;;;;4945049;27;20673;-82
2021/03/17 02:58:51;;;;;;;34.72;13.27;;;1.40;99.90;;;;;;4944718;27;20175;-81
2021/03/17 03:01:17;;;;;;;31.02;12.80;;;1.40;99.90;;;;;;4954957;27;20098;-81
2021/03/17 03:03:41;;;;;;;32.40;13.68;;;1.50;99.90;;;;;;4952372;27;20093;-81
2021/03/17 03:06:06;;;;;;;33.63;13.40;;;1.40;99.90;;;;;;4950619;27;20109;-81
2021/03/17 03:08:30;;;;;;;29.90;12.20;;;1.30;99.90;;;;;;4952462;27;20086;-80
2021/03/17 03:10:54;;;;;;;34.22;12.25;;;1.30;99.90;;;;;;4953732;27;20090;-81
2021/03/17 03:13:18;;;;;;;27.67;12.13;;;1.30;99.90;;;;;;4950955;27;20463;-81
2021/03/17 03:15:41;;;;;;;27.35;11.63;;;1.30;99.90;;;;;;4952288;27;20117;-81
2021/03/17 03:18:05;;;;;;;30.15;10.95;;;1.30;99.90;;;;;;4951115;27;20090;-82
2021/03/17 03:20:31;;;;;;;25.98;10.18;;;1.30;99.90;;;;;;4954377;27;20090;-81
2021/03/17 03:22:56;;;;;;;26.80;10.80;;;1.30;99.90;;;;;;4949547;27;20089;-82
2021/03/17 03:25:21;;;;;;;22.88;9.93;;;1.30;99.90;;;;;;4951579;27;20483;-82
2021/03/17 03:27:44;;;;;;;24.60;9.93;;;1.30;99.90;;;;;;4949972;27;20507;-81
2021/03/17 03:30:09;;;;;;;27.05;10.15;;;1.30;99.90;;;;;;4951949;27;20089;-81
2021/03/17 03:32:33;;;;;;;24.65;9.70;;;1.30;99.90;;;;;;4951146;27;20130;-81
2021/03/17 03:34:56;;;;;;;24.48;10.00;;;1.40;99.90;;;;;;4954578;27;20095;-82
2021/03/17 03:37:18;;;;;;;28.30;9.95;;;1.40;99.90;;;;;;4951365;27;20093;-80
2021/03/17 03:39:42;;;;;;;23.25;10.68;;;1.50;99.90;;;;;;4951561;27;20078;-82
2021/03/17 03:42:05;;;;;;;26.70;10.60;;;1.50;99.90;;;;;;4951897;27;20082;-80
2021/03/17 03:44:27;;;;;;;27.98;11.65;;;;;;;;;;4950568;27;20094;-82
2021/03/17 03:46:50;;;;;;;31.33;10.60;;;;;;;;;;4954605;27;20085;-82
2021/03/17 03:49:13;;;;;;;25.88;11.65;;;1.50;99.90;;;;;;4951042;27;21040;-81
2021/03/17 03:51:41;;;;;;;30.42;12.52;;;1.50;99.90;;;;;;4949429;27;20089;-81
2021/03/17 03:54:13;;;;;;;26.23;10.85;;;1.30;99.90;;;;;;4954964;27;20090;-82
2021/03/17 03:56:42;;;;;;;32.65;11.88;;;1.20;99.90;;;;;;4954961;27;20086;-82
2021/03/17 03:59:10;;;;;;;26.95;11.65;;;1.00;99.90;;;;;;4952845;27;21365;-82
2021/03/17 04:01:39;;;;;;;27.90;11.05;;;1.00;99.90;;;;;;4951993;27;20112;-82
2021/03/17 04:04:09;;;;;;;30.88;12.38;;;0.90;99.90;;;;;;4952646;27;20486;-81
2021/03/17 04:06:34;;;;;;;35.90;13.45;;;0.90;99.90;;;;;;4950818;27;20439;-82
2021/03/17 04:08:59;;;;;;;33.80;13.15;;;0.90;99.90;;;;;;4951145;27;20095;-81
2021/03/17 04:11:23;;;;;;;33.28;13.15;;;0.90;99.90;;;;;;4950330;27;20520;-82
2021/03/17 04:13:50;;;;;;;32.78;12.00;;;0.90;99.90;;;;;;4951219;27;20452;-82
2021/03/17 04:16:13;;;;;;;25.45;10.93;;;;;;;;;;4934408;27;20118;-81
2021/03/17 04:18:40;;;;;;;33.90;12.70;;;0.90;99.90;;;;;;4959335;27;20090;-82
2021/03/17 04:21:06;;;;;;;27.13;12.02;;;0.80;99.90;;;;;;4946388;27;20101;-81
2021/03/17 04:23:32;;;;;;;26.90;11.65;;;0.90;99.90;;;;;;4958174;27;20093;-81
2021/03/17 04:25:55;;;;;;;32.42;12.00;;;0.90;99.90;;;;;;4954576;27;20079;-82
2021/03/17 04:28:22;;;;;;;28.50;12.48;;;0.90;99.90;;;;;;4957079;27;20077;-82
2021/03/17 04:30:47;;;;;;;33.42;12.68;;;0.90;99.90;;;;;;4957283;27;20083;-82
2021/03/17 04:33:12;;;;;;;36.88;14.43;;;0.90;99.90;;;;;;4958958;27;20414;-82
2021/03/17 04:35:35;;;;;;;37.28;13.93;;;1.00;99.90;;;;;;4947563;27;20510;-81
2021/03/17 04:37:58;;;;;;;34.67;12.60;;;1.00;99.90;;;;;;4962364;27;20103;-82
2021/03/17 04:40:23;;;;;;;37.42;13.88;;;0.90;99.90;;;;;;4957578;27;20110;-81
2021/03/17 04:42:46;;;;;;;35.47;13.27;;;0.80;99.90;;;;;;4958390;27;20094;-82
2021/03/17 04:45:10;;;;;;;36.22;13.57;;;0.80;99.90;;;;;;4954778;27;20610;-80
2021/03/17 04:47:35;;;;;;;36.28;14.15;;;0.80;99.90;;;;;;4942588;27;20119;-81
2021/03/17 04:49:58;;;;;;;33.15;13.85;;;0.80;99.90;;;;;;4956025;27;20566;-81
2021/03/17 04:52:24;;;;;;;34.28;12.52;;;0.80;99.90;;;;;;4955990;27;20074;-81
2021/03/17 04:54:47;;;;;;;32.53;12.45;;;0.80;99.90;;;;;;4955405;27;20085;-82
2021/03/17 04:57:14;;;;;;;29.45;11.60;;;0.70;99.90;;;;;;4950972;27;20097;-81
2021/03/17 04:59:40;;;;;;;27.92;12.05;;;0.70;99.90;;;;;;4946492;27;20089;-82
2021/03/17 05:02:04;;;;;;;27.88;11.40;;;0.70;99.90;;;;;;4962865;27;20559;-82
2021/03/17 05:04:29;;;;;;;26.23;10.93;;;0.70;99.90;;;;;;4953785;27;20441;-82
2021/03/17 05:06:53;;;;;;;30.00;10.95;;;0.70;99.90;;;;;;4955716;27;20082;-81
2021/03/17 05:09:18;;;;;;;30.27;11.95;;;0.80;99.90;;;;;;4949348;27;20108;-82
2021/03/17 05:11:43;;;;;;;28.08;12.35;;;0.80;99.90;;;;;;4954351;27;20077;-82
2021/03/17 05:14:06;;;;;;;32.28;11.93;;;0.80;99.90;;;;;;4951472;27;20487;-82
2021/03/17 05:16:31;;;;;;;23.85;10.57;;;0.80;99.90;;;;;;4948643;27;20363;-81
2021/03/17 05:18:55;;;;;;;28.75;11.15;;;0.90;99.90;;;;;;4952935;27;20097;-81
2021/03/17 05:21:19;;;;;;;35.85;12.73;;;0.90;99.90;;;;;;4955143;27;20089;-82
2021/03/17 05:23:42;;;;;;;33.97;12.30;;;0.90;99.90;;;;;;4954343;27;20178;-82
2021/03/17 05:26:05;;;;;;;36.72;13.50;;;0.80;99.90;;;;;;4955563;27;20086;-82
2021/03/17 05:28:30;;;;;;;33.72;13.40;;;0.90;99.90;;;;;;4955829;27;20085;-82
2021/03/17 05:30:54;;;;;;;35.33;14.32;;;0.90;99.90;;;;;;4956412;27;20456;-82
2021/03/17 05:33:17;;;;;;;43.00;13.93;;;0.90;99.90;;;;;;4947137;27;20203;-82
2021/03/17 05:35:40;;;;;;;38.65;14.20;;;0.90;99.90;;;;;;4953306;27;20108;-81
2021/03/17 05:38:05;;;;;;;34.65;14.25;;;0.90;99.90;;;;;;4949793;27;20096;-82
2021/03/17 05:40:29;;;;;;;40.92;14.10;;;0.90;99.90;;;;;;4956254;27;20083;-82
2021/03/17 05:42:52;;;;;;;37.88;13.82;;;;;;;;;;4952710;27;20087;-81
2021/03/17 05:45:17;;;;;;;50.90;14.93;;;1.00;99.90;;;;;;4955900;27;20504;-82
2021/03/17 05:47:44;;;;;;;45.57;15.73;;;0.90;99.90;;;;;;4943952;27;20445;-82
2021/03/17 05:50:08;;;;;;;37.05;13.75;;;0.90;99.90;;;;;;4953229;27;20174;-82
2021/03/17 05:52:31;;;;;;;44.10;14.80;;;0.90;99.90;;;;;;4956334;27;20090;-82
2021/03/17 05:54:55;;;;;;;37.88;13.57;;;1.00;99.90;;;;;;4959692;27;20098;-81
2021/03/17 05:57:17;;;;;;;44.08;14.52;;;1.00;99.90;;;;;;4948876;27;20098;-81
2021/03/17 05:59:40;;;;;;;42.13;14.35;;;1.00;99.90;;;;;;4947065;27;20090;-82
2021/03/17 06:02:04;;;;;;;38.20;13.20;;;1.00;99.90;;;;;;4956116;27;20448;-81
2021/03/17 06:04:29;;;;;;;40.40;13.63;;;-0.50;99.90;;;;;;4954936;27;20079;-80
2021/03/17 06:06:57;;;;;;;30.88;12.50;;;1.00;99.90;;;;;;4951609;27;20490;-82
2021/03/17 06:09:22;;;;;;;36.17;13.75;;;1.00;99.90;;;;;;4945436;27;20402;-82
2021/03/17 06:11:47;;;;;;;34.25;13.20;;;1.00;99.90;;;;;;4956471;27;20086;-83
2021/03/17 06:14:17;;;;;;;34.27;13.13;;;1.10;99.90;;;;;;4947023;27;20094;-82
2021/03/17 06:16:42;;;;;;;31.20;13.20;;;1.10;99.90;;;;;;4950107;27;20120;-82
2021/03/17 06:19:05;;;;;;;39.67;14.35;;;1.20;99.90;;;;;;4954054;27;21056;-82
2021/03/17 06:21:28;;;;;;;32.30;12.90;;;1.30;99.90;;;;;;4955586;27;20117;-83
2021/03/17 06:23:53;;;;;;;32.90;13.52;;;1.40;99.90;;;;;;4944565;27;20143;-81
2021/03/17 06:26:17;;;;;;;34.60;12.68;;;1.40;99.90;;;;;;4954323;27;20094;-80
2021/03/17 06:28:42;;;;;;;33.95;13.20;;;1.50;99.90;;;;;;4955150;27;20527;-81
2021/03/17 06:31:05;;;;;;;30.75;12.63;;;1.60;99.90;;;;;;4951999;27;20073;-82
2021/03/17 06:33:27;;;;;;;33.30;13.02;;;1.70;99.90;;;;;;4953519;27;20510;-81
2021/03/17 06:36:11;;;;;;;35.78;13.95;;;1.80;99.90;;;;;;4956279;27;20113;-82
2021/03/17 06:38:34;;;;;;;34.13;13.85;;;1.80;99.90;;;;;;4956049;27;20082;-81
2021/03/17 06:40:58;;;;;;;36.88;14.35;;;1.90;99.90;;;;;;4954281;27;20089;-82
2021/03/17 06:43:20;;;;;;;31.23;12.63;;;2.00;99.90;;;;;;4949736;27;20096;-81
2021/03/17 06:45:47;;;;;;;34.83;14.38;;;2.00;99.90;;;;;;4936040;27;20094;-81
2021/03/17 06:48:24;;;;;;;38.25;15.00;;;2.20;99.90;;;;;;4955186;27;20431;-81
2021/03/17 06:50:47;;;;;;;39.78;14.88;;;2.20;99.90;;;;;;4951409;27;20153;-82
2021/03/17 06:53:09;;;;;;;43.40;16.33;;;2.30;99.90;;;;;;4952609;27;20109;-82
2021/03/17 06:55:32;;;;;;;43.92;16.88;;;2.50;99.90;;;;;;4943350;27;20098;-81
2021/03/17 06:57:55;;;;;;;37.03;15.40;;;2.50;99.90;;;;;;4954762;27;20097;-82
2021/03/17 07:00:36;;;;;;;40.08;15.35;;;2.60;99.90;;;;;;4954365;27;20078;-82
2021/03/17 07:03:02;;;;;;;39.53;14.68;;;2.70;99.90;;;;;;4953645;27;20089;-82
2021/03/17 07:05:40;;;;;;;42.15;14.65;;;2.80;99.90;;;;;;4954351;27;20081;-82
2021/03/17 07:08:05;;;;;;;39.70;15.35;;;2.90;99.90;;;;;;4950180;27;20178;-82
2021/03/17 07:10:33;;;;;;;40.08;15.15;;;3.00;99.90;;;;;;4951183;27;20566;-81
2021/03/17 07:12:58;;;;;;;42.97;16.92;;;3.10;99.90;;;;;;4952969;27;20144;-81
2021/03/17 07:15:21;;;;;;;37.33;16.00;;;3.10;99.90;;;;;;4953834;27;20645;-81
2021/03/17 07:17:43;;;;;;;38.22;16.02;;;3.10;99.90;;;;;;4941556;27;20146;-82
2021/03/17 07:20:09;;;;;;;42.42;16.58;;;3.00;99.90;;;;;;4960378;27;20092;-81
2021/03/17 07:22:31;;;;;;;45.88;16.88;;;3.10;99.90;;;;;;4952004;27;20082;-82
2021/03/17 07:24:59;;;;;;;42.75;16.95;;;3.20;99.90;;;;;;4951926;27;20082;-81
2021/03/17 07:27:24;;;;;;;44.35;16.02;;;3.20;99.90;;;;;;4955629;27;20179;-81
2021/03/17 07:30:09;;;;;;;41.63;17.45;;;3.30;99.90;;;;;;4952268;27;20089;-82
2021/03/17 07:32:55;;;;;;;42.72;17.33;;;3.50;99.90;;;;;;4951569;27;20082;-82
2021/03/17 07:35:27;;;;;;;47.33;17.73;;;3.60;99.90;;;;;;4948800;27;20087;-82
2021/03/17 07:38:02;;;;;;;47.67;18.45;;;3.70;99.90;;;;;;4951220;27;20123;-81
2021/03/17 07:40:25;;;;;;;42.90;17.30;;;3.80;99.90;;;;;;4950843;27;20085;-82
2021/03/17 07:42:48;;;;;;;49.40;19.38;;;;;;;;;;4953355;27;20097;-81
2021/03/17 07:45:13;;;;;;;42.63;18.13;;;3.80;99.90;;;;;;4949501;27;20078;-81
2021/03/17 07:47:35;;;;;;;40.33;17.15;;;3.90;99.90;;;;;;4952232;27;20094;-82
2021/03/17 07:49:59;;;;;;;41.53;15.63;;;3.80;99.90;;;;;;4953278;27;20483;-81
2021/03/17 07:52:27;;;;;;;43.80;17.35;;;3.80;99.90;;;;;;4940456;27;20094;-81
2021/03/17 07:54:51;;;;;;;38.53;15.38;;;3.80;99.90;;;;;;4954620;27;20088;-82
2021/03/17 07:57:15;;;;;;;39.30;15.70;;;3.90;99.90;;;;;;4959420;27;20114;-82
2021/03/17 07:59:38;;;;;;;39.08;16.27;;;;;;;;;;4957496;27;20451;-81
2021/03/17 08:02:01;;;;;;;35.20;15.70;;;;;;;;;;4957712;27;20559;-81
2021/03/17 08:04:27;;;;;;;35.55;16.30;;;4.10;99.90;;;;;;4957086;27;20097;-81
2021/03/17 08:06:50;;;;;;;37.70;17.08;;;4.30;99.90;;;;;;4955452;27;20089;-81
2021/03/17 08:09:13;;;;;;;37.97;16.90;;;4.40;99.90;;;;;;4957213;27;20536;-81
2021/03/17 08:11:38;;;;;;;32.20;15.43;;;4.50;99.90;;;;;;4948416;27;20565;-80
2021/03/17 08:14:03;;;;;;;35.17;15.82;;;4.40;99.90;;;;;;4957424;27;20089;-81
2021/03/17 08:16:29;;;;;;;37.10;15.48;;;4.50;99.90;;;;;;4954636;27;20511;-81
2021/03/17 08:18:51;;;;;;;31.77;14.05;;;4.50;99.90;;;;;;4952464;27;20524;-81
2021/03/17 08:21:15;;;;;;;32.03;14.15;;;4.60;99.90;;;;;;4958698;27;20097;-81
2021/03/17 08:23:40;;;;;;;30.58;14.10;;;4.50;99.90;;;;;;4956524;27;20147;-81
2021/03/17 08:26:03;;;;;;;33.78;14.20;;;;;;;;;;4955274;27;20082;-82
2021/03/17 08:28:27;;;;;;;28.30;13.23;;;4.60;99.90;;;;;;4950654;27;20086;-81
2021/03/17 08:30:51;;;;;;;29.35;12.18;;;4.60;99.90;;;;;;4955207;27;20089;-81
2021/03/17 08:33:31;;;;;;;28.20;12.85;;;4.70;99.90;;;;;;4954545;27;20097;-81
2021/03/17 08:36:06;;;;;;;26.48;12.45;;;4.60;99.90;;;;;;4957410;27;20533;-81
2021/03/17 08:38:49;;;;;;;27.17;12.70;;;4.50;99.90;;;;;;4951167;27;20085;-82
2021/03/17 08:41:13;;;;;;;32.88;13.82;;;;;;;;;;4954301;27;21128;-81
2021/03/17 08:43:49;;;;;;;26.63;12.80;;;4.30;99.90;;;;;;4953785;27;23710;-81
2021/03/17 08:46:13;;;;;;;28.50;13.50;;;4.20;99.90;;;;;;4945955;27;20482;-82
2021/03/17 08:48:55;;;;;;;28.58;11.63;;;4.20;99.90;;;;;;4954647;27;20090;-82
2021/03/17 08:51:18;;;;;;;26.17;11.80;;;4.20;99.90;;;;;;4952558;27;20096;-81
2021/03/17 08:53:41;;;;;;;26.02;12.68;;;4.20;99.90;;;;;;4954332;27;20143;-81
2021/03/17 08:56:05;;;;;;;27.50;11.88;;;4.30;99.90;;;;;;4955108;27;20081;-80
2021/03/17 08:58:28;;;;;;;24.05;12.60;;;4.40;99.90;;;;;;4951072;27;20081;-81
2021/03/17 09:01:08;;;;;;;29.35;12.05;;;4.40;99.90;;;;;;4941941;27;20452;-81
2021/03/17 09:03:51;;;;;;;27.50;11.75;;;4.50;99.90;;;;;;4904535;27;20164;-81
2021/03/17 09:06:43;;;;;;;25.58;12.15;;;4.60;99.90;;;;;;4894605;27;20128;-81
2021/03/17 09:09:19;;;;;;;27.08;11.45;;;4.80;99.90;;;;;;4905848;27;20094;-81
2021/03/17 09:12:19;;;;;;;25.83;11.82;;;5.00;99.90;;;;;;4896623;27;20102;-82
2021/03/17 09:22:10;;;;;;;19.95;8.43;;;5.30;99.90;;;;;;4897779;27;20094;-82
2021/03/17 09:25:00;;;;;;;16.20;8.68;;;5.90;99.90;;;;;;4896649;27;20416;-81
2021/03/17 09:31:34;;;;;;;11.98;5.55;;;6.30;99.90;;;;;;4883933;27;20085;-80
2021/03/17 09:37:36;;;;;;;8.30;4.43;;;7.30;99.90;;;;;;4890913;27;20907;-81
2021/03/17 09:47:12;;;;;;;6.13;3.40;;;8.60;99.90;;;;;;4901781;27;20489;-81
2021/03/17 10:03:30;;;;;;;9.30;4.13;;;6.00;99.90;;;;;;4886060;27;20464;-80
2021/03/17 10:09:54;;;;;;;7.85;3.85;;;6.20;99.90;;;;;;4910564;27;20116;-80
2021/03/17 10:19:45;;;;;;;4.93;2.90;;;6.20;99.90;;;;;;4883098;27;20096;-80
2021/03/17 10:25:36;;;;;;;4.68;2.03;;;6.30;99.90;;;;;;4895235;27;20539;-81
2021/03/17 10:37:32;;;;;;;4.25;2.33;;;7.80;99.90;;;;;;4887158;27;20455;-80
2021/03/17 10:44:02;;;;;;;5.30;2.78;;;6.70;99.90;;;;;;4890542;27;21345;-80
2021/03/17 10:50:02;;;;;;;4.75;2.10;;;6.90;99.90;;;;;;4912438;27;20540;-80
2021/03/17 10:52:33;;;;;;;5.30;2.42;;;7.40;99.90;;;;;;4907780;27;20101;-81
2021/03/17 10:54:56;;;;;;;4.10;2.60;;;8.00;99.90;;;;;;4953591;27;20447;-80
2021/03/17 10:57:20;;;;;;;5.10;2.67;;;7.90;99.90;;;;;;4945976;27;20451;-81
2021/03/17 10:59:43;;;;;;;4.30;2.30;;;7.90;99.90;;;;;;4951804;27;20089;-81
2021/03/17 11:02:25;;;;;;;4.00;2.40;;;7.20;99.90;;;;;;4951101;27;20097;-81
2021/03/17 11:05:07;;;;;;;5.82;2.35;;;6.90;99.90;;;;;;4946565;27;20149;-81
2021/03/17 11:07:51;;;;;;;9.07;2.72;;;6.70;99.90;;;;;;4945017;27;20121;-82
2021/03/17 11:10:31;;;;;;;3.60;1.55;;;6.60;99.90;;;;;;4946286;27;20520;-80
2021/03/17 11:12:54;;;;;;;5.95;2.00;;;6.80;99.90;;;;;;4938452;27;20085;-81
2021/03/17 11:15:25;;;;;;;3.45;1.73;;;7.00;99.90;;;;;;4943975;27;20425;-80
2021/03/17 11:17:52;;;;;;;3.30;1.95;;;6.90;99.90;;;;;;4936113;27;20086;-80
2021/03/17 11:20:15;;;;;;;3.70;2.15;;;6.70;99.90;;;;;;4937590;27;20090;-80
2021/03/17 11:22:38;;;;;;;5.03;2.30;;;6.50;99.90;;;;;;4945564;27;20402;-80
2021/03/17 11:25:05;;;;;;;5.43;2.10;;;6.50;99.90;;;;;;4948615;27;20081;-80
2021/03/17 11:27:27;;;;;;;4.82;1.98;;;6.60;99.90;;;;;;4944950;27;20086;-80
2021/03/17 11:29:52;;;;;;;6.38;2.13;;;6.80;99.90;;;;;;4945600;27;20558;-81
2021/03/17 11:32:15;;;;;;;5.00;2.30;;;7.00;99.90;;;;;;4951382;27;20082;-81
2021/03/17 11:34:37;;;;;;;10.20;2.45;;;7.40;99.90;;;;;;4948998;27;20085;-80
2021/03/17 11:37:01;;;;;;;3.67;1.50;;;7.40;99.90;;;;;;4942639;27;20089;-82
2021/03/17 11:39:23;;;;;;;3.17;1.23;;;7.80;99.90;;;;;;4965120;27;20084;-81
2021/03/17 11:41:48;;;;;;;4.03;1.33;;;7.90;99.90;;;;;;4940156;27;20075;-81
2021/03/17 11:44:14;;;;;;;2.03;1.10;;;7.80;99.90;;;;;;4947304;27;20088;-80
2021/03/17 11:46:36;;;;;;;3.03;1.40;;;7.60;99.90;;;;;;4939297;27;20462;-81
2021/03/17 11:48:59;;;;;;;3.00;1.80;;;7.80;99.90;;;;;;4945957;27;22115;-81
2021/03/17 11:51:23;;;;;;;3.90;1.58;;;7.90;99.90;;;;;;4951601;27;20628;-81
2021/03/17 11:53:47;;;;;;;2.50;1.40;;;7.90;99.90;;;;;;4950110;27;20089;-82
2021/03/17 11:56:10;;;;;;;3.05;1.30;;;7.90;99.90;;;;;;4950075;27;20547;-81
2021/03/17 11:58:33;;;;;;;3.30;1.50;;;7.50;99.90;;;;;;4937443;27;20179;-80
2021/03/17 12:00:56;;;;;;;1.50;0.95;;;7.00;99.90;;;;;;4949156;27;20118;-80
2021/03/17 12:03:18;;;;;;;3.85;1.20;;;7.00;99.90;;;;;;4948496;27;20084;-80
2021/03/17 12:05:43;;;;;;;4.13;1.20;;;7.30;99.90;;;;;;4948115;27;20084;-81
2021/03/17 12:08:06;;;;;;;3.50;2.38;;;7.60;99.90;;;;;;4949253;27;20171;-81
2021/03/17 12:10:30;;;;;;;3.45;1.48;;;7.60;99.90;;;;;;4950233;27;20081;-81
2021/03/17 12:12:53;;;;;;;5.57;1.50;;;7.80;99.90;;;;;;4947930;27;20694;-81
2021/03/17 12:15:18;;;;;;;4.47;1.92;;;7.70;99.90;;;;;;4949652;27;20130;-80
2021/03/17 12:17:41;;;;;;;2.60;1.10;;;7.30;99.90;;;;;;4950432;27;20543;-81
2021/03/17 12:20:07;;;;;;;2.00;1.05;;;7.30;99.90;;;;;;4950939;27;20088;-81
2021/03/17 12:22:29;;;;;;;2.15;1.30;;;7.10;99.90;;;;;;4949269;27;20543;-81
2021/03/17 12:24:52;;;;;;;3.95;1.10;;;7.10;99.90;;;;;;4950607;27;20197;-81
2021/03/17 12:27:15;;;;;;;4.00;1.27;;;7.30;99.90;;;;;;4948758;27;20118;-81
2021/03/17 12:29:38;;;;;;;2.15;1.02;;;7.40;99.90;;;;;;4946060;27;20431;-81
2021/03/17 12:32:00;;;;;;;2.05;1.20;;;7.40;99.90;;;;;;4946699;27;20097;-80
2021/03/17 12:34:23;;;;;;;1.40;1.17;;;7.50;99.90;;;;;;4949910;27;20085;-80
2021/03/17 12:36:45;;;;;;;2.60;1.17;;;7.50;99.90;;;;;;4948728;27;20085;-81
2021/03/17 12:39:08;;;;;;;1.10;0.88;;;7.60;99.90;;;;;;4950233;27;20436;-80
2021/03/17 12:41:31;;;;;;;2.42;0.85;;;7.60;99.90;;;;;;4949589;27;20088;-81
2021/03/17 12:43:55;;;;;;;2.20;0.77;;;7.50;99.90;;;;;;4946001;27;20453;-81
2021/03/17 12:46:18;;;;;;;3.95;1.27;;;7.60;99.90;;;;;;4941967;27;20089;-80
2021/03/17 12:48:40;;;;;;;1.58;0.88;;;7.50;99.90;;;;;;4947863;27;20104;-81
2021/03/17 12:51:03;;;;;;;1.70;1.00;;;7.50;99.90;;;;;;4949958;27;20084;-81
2021/03/17 12:53:26;;;;;;;3.92;1.35;;;7.70;99.90;;;;;;4949606;27;20484;-81
2021/03/17 12:55:49;;;;;;;2.15;1.15;;;7.60;99.90;;;;;;4947723;27;20111;-81
2021/03/17 12:58:12;;;;;;;2.55;1.38;;;7.50;99.90;;;;;;4950675;27;20093;-81
2021/03/17 13:00:35;;;;;;;3.20;1.65;;;7.40;99.90;;;;;;4945398;27;20091;-80
2021/03/17 13:03:00;;;;;;;1.60;0.88;;;7.20;99.90;;;;;;4948089;27;20112;-80
2021/03/17 13:05:23;;;;;;;3.45;1.00;;;6.80;99.90;;;;;;4952898;27;20089;-80
2021/03/17 13:07:46;;;;;;;2.45;1.10;;;6.80;99.90;;;;;;4948412;27;20082;-81
2021/03/17 13:10:13;;;;;;;3.00;1.35;;;7.00;99.90;;;;;;4939682;27;20089;-80
2021/03/17 13:12:36;;;;;;;1.52;0.95;;;7.30;99.90;;;;;;4948074;27;20094;-81
2021/03/17 13:14:59;;;;;;;2.88;1.02;;;7.50;99.90;;;;;;4946845;27;20139;-82
2021/03/17 13:17:23;;;;;;;5.07;0.70;;;;;;;;;;4946102;27;20137;-82
2021/03/17 13:19:45;;;;;;;2.22;0.60;;;7.60;99.90;;;;;;4949088;27;20084;-81
2021/03/17 13:22:08;;;;;;;2.67;0.82;;;7.60;99.90;;;;;;4940307;27;20084;-81
2021/03/17 13:24:31;;;;;;;6.65;0.70;;;7.50;99.90;;;;;;4941945;27;20089;-80
2021/03/17 13:26:54;;;;;;;1.98;0.73;;;7.40;99.90;;;;;;4942845;27;20088;-81
2021/03/17 13:29:16;;;;;;;2.40;0.70;;;7.60;99.90;;;;;;4952152;27;20088;-80
2021/03/17 13:31:39;;;;;;;1.80;0.65;;;7.40;99.90;;;;;;4947541;27;20443;-80
2021/03/17 13:34:03;;;;;;;2.55;0.77;;;7.30;99.90;;;;;;4952855;27;20089;-82
2021/03/17 13:36:25;;;;;;;3.45;0.70;;;7.50;99.90;;;;;;4956650;27;20088;-81
2021/03/17 13:38:48;;;;;;;12.38;1.52;;;7.60;99.90;;;;;;4956615;27;20092;-81
2021/03/17 13:41:10;;;;;;;1.48;0.93;;;7.50;99.90;;;;;;4956570;27;20091;-83
2021/03/17 13:43:33;;;;;;;1.58;0.70;;;7.30;99.90;;;;;;4957978;27;20097;-81
2021/03/17 13:45:56;;;;;;;3.13;0.88;;;7.60;99.90;;;;;;4953426;27;20093;-81